WJA113 CYLW-CYVR
Flight info
| Callsign | WJA113 |
|---|---|
| Flight time | 0h 44m |
| Altitude | 16000 |
| Route | CYLW BOOTH CYVR |
| Aircraft | B738/M-V/N |
Departure
| Time | 2026-05-08 21:40 |
|---|---|
| Airport | Kelowna International Airport (CYLW) |
Arrival
| Time | 2026-05-08 22:24 |
|---|---|
| Airport | Vancouver International Airport (CYVR) |
| Time | Latitude | Longitude | Altitude | Speed | Heading |
|---|---|---|---|---|---|
| 2026-05-08 21:27 | 49.95024 | -119.38014 | 1405 ft | 0 kts | 311° |
| 2026-05-08 21:31 | 49.95020 | -119.38007 | 1405 ft | 2 kts | 311° |
| 2026-05-08 21:32 | 49.95006 | -119.37985 | 1405 ft | 3 kts | 313° |
| 2026-05-08 21:32 | 49.94994 | -119.37952 | 1404 ft | 3 kts | 294° |
| 2026-05-08 21:32 | 49.94986 | -119.37924 | 1405 ft | 3 kts | 293° |
| 2026-05-08 21:32 | 49.94984 | -119.37915 | 1405 ft | 1 kts | 307° |
| 2026-05-08 21:33 | 49.94995 | -119.37919 | 1405 ft | 2 kts | 356° |
| 2026-05-08 21:33 | 49.95016 | -119.37921 | 1405 ft | 2 kts | 358° |
| 2026-05-08 21:33 | 49.95031 | -119.37922 | 1406 ft | 2 kts | 358° |
| 2026-05-08 21:33 | 49.95044 | -119.37923 | 1406 ft | 1 kts | 358° |
| 2026-05-08 21:34 | 49.95055 | -119.37923 | 1407 ft | 1 kts | 358° |
| 2026-05-08 21:34 | 49.95070 | -119.37924 | 1407 ft | 4 kts | 358° |
| 2026-05-08 21:34 | 49.95136 | -119.37901 | 1410 ft | 11 kts | 39° |
| 2026-05-08 21:34 | 49.95200 | -119.37865 | 1412 ft | 9 kts | 358° |
| 2026-05-08 21:35 | 49.95264 | -119.37872 | 1413 ft | 9 kts | 355° |
| 2026-05-08 21:35 | 49.95338 | -119.37882 | 1414 ft | 10 kts | 354° |
| 2026-05-08 21:35 | 49.95422 | -119.37894 | 1417 ft | 14 kts | 355° |
| 2026-05-08 21:35 | 49.95533 | -119.37909 | 1419 ft | 17 kts | 355° |
| 2026-05-08 21:36 | 49.95667 | -119.37927 | 1423 ft | 20 kts | 357° |
| 2026-05-08 21:36 | 49.95821 | -119.37948 | 1428 ft | 24 kts | 355° |
| 2026-05-08 21:36 | 49.95993 | -119.37973 | 1435 ft | 24 kts | 354° |
| 2026-05-08 21:36 | 49.96153 | -119.37995 | 1438 ft | 16 kts | 354° |
| 2026-05-08 21:37 | 49.96252 | -119.38010 | 1440 ft | 13 kts | 356° |
| 2026-05-08 21:37 | 49.96343 | -119.38018 | 1441 ft | 12 kts | 355° |
| 2026-05-08 21:37 | 49.96436 | -119.38036 | 1444 ft | 16 kts | 353° |
| 2026-05-08 21:37 | 49.96556 | -119.38057 | 1448 ft | 16 kts | 3° |
| 2026-05-08 21:38 | 49.96589 | -119.38039 | 1448 ft | 1 kts | 38° |
| 2026-05-08 21:38 | 49.96607 | -119.37988 | 1449 ft | 7 kts | 84° |
| 2026-05-08 21:38 | 49.96587 | -119.37923 | 1448 ft | 7 kts | 152° |
| 2026-05-08 21:38 | 49.96532 | -119.37910 | 1447 ft | 9 kts | 174° |
| 2026-05-08 21:39 | 49.96460 | -119.37899 | 1445 ft | 12 kts | 174° |
| 2026-05-08 21:39 | 49.96299 | -119.37872 | 1439 ft | 51 kts | 174° |
| 2026-05-08 21:39 | 49.95635 | -119.37769 | 1422 ft | 145 kts | 175° |
| 2026-05-08 21:39 | 49.94426 | -119.37537 | 2005 ft | 196 kts | 174° |
| 2026-05-08 21:40 | 49.93046 | -119.37364 | 3348 ft | 212 kts | 181° |
| 2026-05-08 21:40 | 49.91627 | -119.37272 | 4501 ft | 207 kts | 177° |
| 2026-05-08 21:40 | 49.90156 | -119.37012 | 5058 ft | 222 kts | 174° |
| 2026-05-08 21:41 | 49.87102 | -119.36407 | 6813 ft | 223 kts | 175° |
| 2026-05-08 21:41 | 49.85572 | -119.36083 | 7610 ft | 226 kts | 174° |
| 2026-05-08 21:41 | 49.84018 | -119.35747 | 8373 ft | 229 kts | 175° |
| 2026-05-08 21:41 | 49.82452 | -119.35408 | 9191 ft | 230 kts | 174° |
| 2026-05-08 21:42 | 49.80871 | -119.35068 | 9971 ft | 233 kts | 175° |
| 2026-05-08 21:42 | 49.79252 | -119.35165 | 10636 ft | 244 kts | 200° |
| 2026-05-08 21:42 | 49.77865 | -119.36703 | 11353 ft | 257 kts | 234° |
| 2026-05-08 21:42 | 49.77233 | -119.39309 | 12062 ft | 272 kts | 262° |
| 2026-05-08 21:43 | 49.77126 | -119.42286 | 12782 ft | 287 kts | 268° |
| 2026-05-08 21:43 | 49.77029 | -119.45450 | 13469 ft | 300 kts | 265° |
| 2026-05-08 21:43 | 49.76840 | -119.48696 | 13991 ft | 312 kts | 263° |
| 2026-05-08 21:43 | 49.76576 | -119.52093 | 14410 ft | 327 kts | 262° |
| 2026-05-08 21:44 | 49.76272 | -119.55610 | 15081 ft | 336 kts | 261° |
| 2026-05-08 21:44 | 49.75955 | -119.59208 | 15742 ft | 338 kts | 261° |
| 2026-05-08 21:44 | 49.75631 | -119.62831 | 15950 ft | 347 kts | 261° |
| 2026-05-08 21:44 | 49.75303 | -119.66531 | 15969 ft | 355 kts | 261° |
| 2026-05-08 21:45 | 49.74963 | -119.70401 | 15958 ft | 366 kts | 261° |
| 2026-05-08 21:45 | 49.74620 | -119.74349 | 15945 ft | 380 kts | 261° |
| 2026-05-08 21:45 | 49.74264 | -119.78438 | 15965 ft | 391 kts | 261° |
| 2026-05-08 21:45 | 49.73895 | -119.82640 | 15978 ft | 398 kts | 261° |
| 2026-05-08 21:46 | 49.73519 | -119.86866 | 16000 ft | 403 kts | 261° |
| 2026-05-08 21:46 | 49.73128 | -119.91196 | 16006 ft | 412 kts | 261° |
| 2026-05-08 21:46 | 49.72723 | -119.95660 | 16011 ft | 416 kts | 261° |
| 2026-05-08 21:46 | 49.72338 | -119.99931 | 16023 ft | 390 kts | 261° |
| 2026-05-08 21:47 | 49.71984 | -120.03930 | 16019 ft | 365 kts | 261° |
| 2026-05-08 21:47 | 49.71653 | -120.07700 | 16024 ft | 342 kts | 261° |
| 2026-05-08 21:47 | 49.71339 | -120.11276 | 16027 ft | 338 kts | 261° |
| 2026-05-08 21:47 | 49.71019 | -120.14891 | 16033 ft | 338 kts | 261° |
| 2026-05-08 21:48 | 49.70699 | -120.18476 | 16028 ft | 337 kts | 261° |
| 2026-05-08 21:48 | 49.70375 | -120.22051 | 16033 ft | 338 kts | 261° |
| 2026-05-08 21:48 | 49.70047 | -120.25631 | 16034 ft | 338 kts | 261° |
| 2026-05-08 21:48 | 49.69711 | -120.29245 | 16019 ft | 338 kts | 261° |
| 2026-05-08 21:49 | 49.69377 | -120.32802 | 16019 ft | 339 kts | 261° |
| 2026-05-08 21:49 | 49.69043 | -120.36417 | 16038 ft | 338 kts | 261° |
| 2026-05-08 21:49 | 49.68716 | -120.40009 | 16026 ft | 339 kts | 261° |
| 2026-05-08 21:49 | 49.68392 | -120.43570 | 16024 ft | 338 kts | 261° |
| 2026-05-08 21:50 | 49.68064 | -120.47143 | 16025 ft | 339 kts | 261° |
| 2026-05-08 21:50 | 49.67727 | -120.50780 | 16022 ft | 339 kts | 261° |
| 2026-05-08 21:50 | 49.67393 | -120.54362 | 16032 ft | 340 kts | 261° |
| 2026-05-08 21:50 | 49.67057 | -120.57946 | 16036 ft | 340 kts | 261° |
| 2026-05-08 21:51 | 49.66719 | -120.61534 | 16024 ft | 338 kts | 261° |
| 2026-05-08 21:51 | 49.66376 | -120.65162 | 16030 ft | 339 kts | 260° |
| 2026-05-08 21:51 | 49.66034 | -120.68744 | 16033 ft | 338 kts | 260° |
| 2026-05-08 21:51 | 49.65690 | -120.72339 | 16045 ft | 338 kts | 260° |
| 2026-05-08 21:52 | 49.65353 | -120.75862 | 16043 ft | 336 kts | 260° |
| 2026-05-08 21:52 | 49.65009 | -120.79442 | 16035 ft | 338 kts | 260° |
| 2026-05-08 21:52 | 49.64663 | -120.83031 | 16020 ft | 339 kts | 261° |
| 2026-05-08 21:52 | 49.64311 | -120.86632 | 16028 ft | 339 kts | 260° |
| 2026-05-08 21:53 | 49.63958 | -120.90233 | 16031 ft | 338 kts | 261° |
| 2026-05-08 21:53 | 49.63612 | -120.93780 | 16027 ft | 339 kts | 261° |
| 2026-05-08 21:53 | 49.63263 | -120.97360 | 16025 ft | 338 kts | 261° |
| 2026-05-08 21:53 | 49.62912 | -121.00948 | 16022 ft | 338 kts | 260° |
| 2026-05-08 21:54 | 49.62556 | -121.04555 | 16010 ft | 339 kts | 261° |
| 2026-05-08 21:54 | 49.62199 | -121.08136 | 16016 ft | 337 kts | 260° |
| 2026-05-08 21:54 | 49.61849 | -121.11660 | 16028 ft | 337 kts | 261° |
| 2026-05-08 21:54 | 49.61498 | -121.15211 | 16032 ft | 336 kts | 261° |
| 2026-05-08 21:55 | 49.61146 | -121.18784 | 16025 ft | 338 kts | 261° |
| 2026-05-08 21:55 | 49.60792 | -121.22347 | 16038 ft | 337 kts | 261° |
| 2026-05-08 21:55 | 49.60439 | -121.25878 | 16029 ft | 335 kts | 261° |
| 2026-05-08 21:56 | 49.59723 | -121.32973 | 16036 ft | 336 kts | 261° |
| 2026-05-08 21:56 | 49.59360 | -121.36536 | 16055 ft | 335 kts | 261° |
| 2026-05-08 21:56 | 49.58998 | -121.40050 | 16049 ft | 334 kts | 261° |
| 2026-05-08 21:56 | 49.58627 | -121.43602 | 16052 ft | 334 kts | 261° |
| 2026-05-08 21:57 | 49.58260 | -121.47115 | 16069 ft | 334 kts | 261° |
| 2026-05-08 21:57 | 49.57893 | -121.50634 | 16076 ft | 333 kts | 261° |
| 2026-05-08 21:57 | 49.57525 | -121.54163 | 16073 ft | 333 kts | 261° |
| 2026-05-08 21:57 | 49.57159 | -121.57689 | 16064 ft | 334 kts | 261° |
| 2026-05-08 21:58 | 49.56793 | -121.61208 | 16068 ft | 333 kts | 261° |
| 2026-05-08 21:58 | 49.56428 | -121.64722 | 16065 ft | 332 kts | 261° |
| 2026-05-08 21:58 | 49.56060 | -121.68243 | 16084 ft | 333 kts | 261° |
| 2026-05-08 21:58 | 49.55692 | -121.71735 | 16083 ft | 330 kts | 261° |
| 2026-05-08 21:59 | 49.55326 | -121.75214 | 16094 ft | 331 kts | 261° |
| 2026-05-08 21:59 | 49.54963 | -121.78685 | 16076 ft | 330 kts | 261° |
| 2026-05-08 21:59 | 49.54602 | -121.82189 | 16077 ft | 331 kts | 261° |
| 2026-05-08 21:59 | 49.54248 | -121.85635 | 16091 ft | 330 kts | 261° |
| 2026-05-08 22:00 | 49.53880 | -121.89166 | 16093 ft | 330 kts | 261° |
| 2026-05-08 22:00 | 49.53516 | -121.92605 | 16094 ft | 330 kts | 261° |
| 2026-05-08 22:00 | 49.53141 | -121.96107 | 16107 ft | 330 kts | 261° |
| 2026-05-08 22:00 | 49.52770 | -121.99524 | 16102 ft | 327 kts | 261° |
| 2026-05-08 22:01 | 49.52312 | -122.02966 | 16103 ft | 330 kts | 256° |
| 2026-05-08 22:01 | 49.51525 | -122.06304 | 16115 ft | 332 kts | 246° |
| 2026-05-08 22:01 | 49.50427 | -122.09414 | 16109 ft | 332 kts | 241° |
| 2026-05-08 22:01 | 49.49196 | -122.12431 | 16105 ft | 332 kts | 239° |
| 2026-05-08 22:02 | 49.47939 | -122.15409 | 16117 ft | 341 kts | 239° |
| 2026-05-08 22:02 | 49.46621 | -122.18577 | 16112 ft | 370 kts | 240° |
| 2026-05-08 22:02 | 49.45255 | -122.21936 | 16119 ft | 375 kts | 240° |
| 2026-05-08 22:02 | 49.43849 | -122.25446 | 16114 ft | 391 kts | 240° |
| 2026-05-08 22:03 | 49.42428 | -122.29015 | 16125 ft | 393 kts | 241° |
| 2026-05-08 22:03 | 49.41002 | -122.32598 | 15820 ft | 392 kts | 240° |
| 2026-05-08 22:03 | 49.39606 | -122.36076 | 15205 ft | 377 kts | 240° |
| 2026-05-08 22:03 | 49.38220 | -122.39389 | 14821 ft | 368 kts | 239° |
| 2026-05-08 22:04 | 49.36787 | -122.42729 | 14431 ft | 381 kts | 239° |
| 2026-05-08 22:04 | 49.35310 | -122.46139 | 13837 ft | 382 kts | 238° |
| 2026-05-08 22:04 | 49.33876 | -122.49437 | 13188 ft | 370 kts | 238° |
| 2026-05-08 22:04 | 49.32479 | -122.52652 | 12674 ft | 358 kts | 238° |
| 2026-05-08 22:05 | 49.31112 | -122.55814 | 12373 ft | 351 kts | 238° |
| 2026-05-08 22:05 | 49.29814 | -122.58813 | 12134 ft | 325 kts | 238° |
| 2026-05-08 22:05 | 49.28610 | -122.61600 | 11923 ft | 314 kts | 239° |
| 2026-05-08 22:05 | 49.27399 | -122.64415 | 11762 ft | 316 kts | 239° |
| 2026-05-08 22:06 | 49.26217 | -122.67153 | 11576 ft | 295 kts | 238° |
| 2026-05-08 22:06 | 49.25166 | -122.69718 | 11426 ft | 275 kts | 244° |
| 2026-05-08 22:06 | 49.24522 | -122.72436 | 11149 ft | 277 kts | 261° |
| 2026-05-08 22:06 | 49.24566 | -122.75340 | 10799 ft | 272 kts | 279° |
| 2026-05-08 22:07 | 49.24930 | -122.78165 | 10436 ft | 266 kts | 281° |
| 2026-05-08 22:07 | 49.25280 | -122.80868 | 10080 ft | 257 kts | 280° |
| 2026-05-08 22:07 | 49.25602 | -122.83486 | 9872 ft | 244 kts | 279° |
| 2026-05-08 22:07 | 49.25896 | -122.85975 | 9678 ft | 232 kts | 279° |
| 2026-05-08 22:08 | 49.26177 | -122.88399 | 9320 ft | 227 kts | 279° |
| 2026-05-08 22:08 | 49.26445 | -122.90729 | 9044 ft | 220 kts | 279° |
| 2026-05-08 22:08 | 49.26706 | -122.92952 | 8932 ft | 205 kts | 279° |
| 2026-05-08 22:08 | 49.26953 | -122.95023 | 8765 ft | 195 kts | 279° |
| 2026-05-08 22:09 | 49.27194 | -122.97036 | 8493 ft | 190 kts | 279° |
| 2026-05-08 22:09 | 49.27424 | -122.99005 | 8251 ft | 185 kts | 279° |
| 2026-05-08 22:09 | 49.27639 | -123.00887 | 8057 ft | 176 kts | 278° |
| 2026-05-08 22:09 | 49.27843 | -123.02679 | 7909 ft | 165 kts | 278° |
| 2026-05-08 22:10 | 49.28034 | -123.04353 | 7868 ft | 158 kts | 278° |
| 2026-05-08 22:10 | 49.28232 | -123.06007 | 7679 ft | 157 kts | 279° |
| 2026-05-08 22:10 | 49.28422 | -123.07582 | 7515 ft | 149 kts | 278° |
| 2026-05-08 22:10 | 49.28613 | -123.09186 | 7161 ft | 154 kts | 278° |
| 2026-05-08 22:11 | 49.28804 | -123.10806 | 6942 ft | 158 kts | 278° |
| 2026-05-08 22:11 | 49.28997 | -123.12463 | 6745 ft | 158 kts | 278° |
| 2026-05-08 22:11 | 49.29193 | -123.14125 | 6551 ft | 158 kts | 278° |
| 2026-05-08 22:11 | 49.29391 | -123.15793 | 6362 ft | 159 kts | 279° |
| 2026-05-08 22:12 | 49.29587 | -123.17454 | 6181 ft | 158 kts | 278° |
| 2026-05-08 22:12 | 49.29781 | -123.19093 | 5995 ft | 158 kts | 278° |
| 2026-05-08 22:12 | 49.29975 | -123.20750 | 5818 ft | 158 kts | 278° |
| 2026-05-08 22:12 | 49.30166 | -123.22389 | 5646 ft | 157 kts | 278° |
| 2026-05-08 22:13 | 49.30357 | -123.24039 | 5512 ft | 155 kts | 279° |
| 2026-05-08 22:13 | 49.30548 | -123.25662 | 5441 ft | 157 kts | 278° |
| 2026-05-08 22:13 | 49.30735 | -123.27338 | 5304 ft | 160 kts | 278° |
| 2026-05-08 22:13 | 49.30914 | -123.28973 | 5062 ft | 157 kts | 278° |
| 2026-05-08 22:14 | 49.31091 | -123.30619 | 4803 ft | 156 kts | 278° |
| 2026-05-08 22:14 | 49.31264 | -123.32253 | 4553 ft | 156 kts | 278° |
| 2026-05-08 22:14 | 49.31445 | -123.33894 | 4306 ft | 156 kts | 278° |
| 2026-05-08 22:14 | 49.31626 | -123.35521 | 4125 ft | 154 kts | 278° |
| 2026-05-08 22:15 | 49.31800 | -123.37140 | 4132 ft | 156 kts | 278° |
| 2026-05-08 22:15 | 49.31977 | -123.38791 | 4131 ft | 156 kts | 278° |
| 2026-05-08 22:15 | 49.32152 | -123.40417 | 4130 ft | 156 kts | 278° |
| 2026-05-08 22:15 | 49.32325 | -123.42065 | 4132 ft | 156 kts | 278° |
| 2026-05-08 22:16 | 49.32478 | -123.43710 | 4127 ft | 156 kts | 272° |
| 2026-05-08 22:16 | 49.32242 | -123.45292 | 4129 ft | 153 kts | 239° |
| 2026-05-08 22:16 | 49.31522 | -123.46486 | 4140 ft | 154 kts | 219° |
| 2026-05-08 22:16 | 49.30570 | -123.47242 | 4135 ft | 154 kts | 197° |
| 2026-05-08 22:17 | 49.29535 | -123.47627 | 4134 ft | 155 kts | 195° |
| 2026-05-08 22:17 | 49.28500 | -123.48055 | 4130 ft | 155 kts | 197° |
| 2026-05-08 22:17 | 49.27466 | -123.48508 | 4129 ft | 154 kts | 197° |
| 2026-05-08 22:17 | 49.26424 | -123.48976 | 4136 ft | 156 kts | 197° |
| 2026-05-08 22:18 | 49.25386 | -123.49436 | 4141 ft | 155 kts | 197° |
| 2026-05-08 22:18 | 49.24356 | -123.49873 | 4137 ft | 155 kts | 194° |
| 2026-05-08 22:18 | 49.23291 | -123.49797 | 4135 ft | 157 kts | 160° |
| 2026-05-08 22:18 | 49.22438 | -123.48734 | 4144 ft | 158 kts | 130° |
| 2026-05-08 22:19 | 49.21955 | -123.47231 | 4144 ft | 161 kts | 104° |
| 2026-05-08 22:19 | 49.21807 | -123.45534 | 4140 ft | 161 kts | 98° |
| 2026-05-08 22:19 | 49.21644 | -123.43848 | 4133 ft | 160 kts | 101° |
| 2026-05-08 22:19 | 49.21450 | -123.42199 | 4025 ft | 153 kts | 102° |
| 2026-05-08 22:20 | 49.21270 | -123.40614 | 3587 ft | 154 kts | 101° |
| 2026-05-08 22:20 | 49.21100 | -123.39003 | 3185 ft | 153 kts | 101° |
| 2026-05-08 22:20 | 49.20923 | -123.37385 | 2890 ft | 155 kts | 101° |
| 2026-05-08 22:20 | 49.20743 | -123.35792 | 2592 ft | 154 kts | 102° |
| 2026-05-08 22:21 | 49.20562 | -123.34184 | 2224 ft | 154 kts | 102° |
| 2026-05-08 22:21 | 49.20383 | -123.32587 | 1767 ft | 152 kts | 102° |
| 2026-05-08 22:21 | 49.20206 | -123.31029 | 1382 ft | 146 kts | 102° |
| 2026-05-08 22:21 | 49.20044 | -123.29578 | 1152 ft | 144 kts | 103° |
| 2026-05-08 22:22 | 49.19875 | -123.28082 | 963 ft | 143 kts | 103° |
| 2026-05-08 22:22 | 49.19701 | -123.26596 | 772 ft | 141 kts | 103° |
| 2026-05-08 22:22 | 49.19544 | -123.25101 | 426 ft | 149 kts | 100° |
| 2026-05-08 22:22 | 49.19383 | -123.23595 | 220 ft | 136 kts | 106° |
| 2026-05-08 22:23 | 49.19167 | -123.22254 | 177 ft | 126 kts | 103° |
| 2026-05-08 22:23 | 49.19048 | -123.20936 | 114 ft | 124 kts | 103° |
| 2026-05-08 22:23 | 49.18879 | -123.19640 | 17 ft | 121 kts | 102° |
| 2026-05-08 22:23 | 49.18761 | -123.18619 | 18 ft | 67 kts | 99° |
| 2026-05-08 22:24 | 49.18712 | -123.18182 | 18 ft | 23 kts | 97° |
| 2026-05-08 22:24 | 49.18693 | -123.17969 | 18 ft | 20 kts | 98° |
| 2026-05-08 22:24 | 49.18681 | -123.17731 | 15 ft | 26 kts | 88° |
| 2026-05-08 22:24 | 49.18723 | -123.17435 | 15 ft | 28 kts | 68° |
| 2026-05-08 22:25 | 49.18749 | -123.17351 | 15 ft | 0 kts | 65° |
| 2026-05-08 22:26 | 49.18807 | -123.17298 | 15 ft | 14 kts | 330° |
| 2026-05-08 22:26 | 49.18837 | -123.17441 | 15 ft | 14 kts | 279° |
| 2026-05-08 22:26 | 49.18861 | -123.17636 | 15 ft | 23 kts | 280° |
| 2026-05-08 22:26 | 49.18892 | -123.17886 | 16 ft | 23 kts | 279° |
| 2026-05-08 22:27 | 49.18930 | -123.18057 | 18 ft | 9 kts | 335° |
| 2026-05-08 22:27 | 49.18999 | -123.18058 | 18 ft | 10 kts | 13° |
| 2026-05-08 22:27 | 49.19072 | -123.18047 | 18 ft | 10 kts | 347° |
| 2026-05-08 22:27 | 49.19110 | -123.18138 | 18 ft | 11 kts | 306° |
| 2026-05-08 22:28 | 49.19176 | -123.18158 | 18 ft | 1 kts | 11° |
| 2026-05-08 22:28 | 49.19181 | -123.18156 | 18 ft | 0 kts | 10° |